La Palma > ESTACION METEOROLÓGICA Granja - Garafia

DATOS ACTUALES Online

Ultima actulizacion 6 minutos

18.4 ºC

Temperatura

58

Humedad (%)

1020.1

Presión (mb)

0

Precipitación (mm)

21.96 NE

Viento (Km/h)

DATOS DIARIOS

Temperatura últimas 24 horas (ºC)

Humedad últimas 24 horas (%)

Presión atmosférica últimas 24 horas (mb)

Precipitaciones últimas 23 horas (mm)

Viento últimas 24 horas (Km/h)

Hora Temperatura (°C) ºC Precipitación (mm) mm Presión (mb) mb Humedad (%) % Viento (Km/h) km/h
15 - 23:00 16.1 0 1021 87 10.98 NE
16 - 00:00 15.2 0 1020 98 14.04 NE
16 - 01:00 15 0 1020 99 12.6 NE
16 - 02:00 16.7 0 1020 75 15.66 NE
16 - 03:00 15.2 0 1019 96 17.28 NE
16 - 04:00 15.3 0 1019 95 18.72 NE
16 - 05:00 16.1 0 1019 84 18.72 NE
16 - 06:00 18.5 0 1019 62 14.04 NE
16 - 07:00 18.2 0 1019 66 18.72 NE
16 - 08:00 19.6 0 1019 62 15.66 NE
16 - 09:00 18.9 0 1020 71 14.04 NE
16 - 10:00 20.1 0 1020 69 25.02 NE
16 - 11:00 20.7 0 1020 74 23.4 NE
16 - 12:00 21.1 0 1020 70 20.34 NE
16 - 13:00 21.2 0 1020 69 20.34 NE
16 - 14:00 21.2 0 1020 71 15.66 NE
16 - 15:00 20.3 0 1019 81 18.72 NE
16 - 16:00 20.1 0 1019 78 21.96 NE
16 - 17:00 19.2 0 1019 83 12.6 NE
16 - 18:00 18.4 0 1019 82 25.02 NE
16 - 19:00 19.1 0 1019 66 20.34 NE
16 - 20:00 18.9 0 1019 58 20.34 NE
16 - 21:00 18.3 0 1020 59 17.28 NE
16 - 22:00 18.7 0 1020 56 25.02 NE
16 - 23:00 18.4 0 1020 58 21.96 NE
Apalmet utiliza cookies propias y de terceros para mejorar la usabilidad y la experiencia web. Política de cookies.